sensor_id;sensor_type;location;lat;lon;timestamp;P1;durP1;ratioP1;P2;durP2;ratioP2
51034;SDS011;37062;52.546;13.230;2023-04-16T00:00:59;22.13;;;17.98;;
51034;SDS011;37062;52.546;13.230;2023-04-16T00:03:29;24.17;;;18.55;;
51034;SDS011;37062;52.546;13.230;2023-04-16T00:05:58;22.48;;;18.98;;
51034;SDS011;37062;52.546;13.230;2023-04-16T00:08:26;23.23;;;18.13;;
51034;SDS011;37062;52.546;13.230;2023-04-16T00:10:54;21.67;;;17.85;;
51034;SDS011;37062;52.546;13.230;2023-04-16T00:13:22;21.38;;;17.75;;
51034;SDS011;37062;52.546;13.230;2023-04-16T00:15:52;23.50;;;19.30;;
51034;SDS011;37062;52.546;13.230;2023-04-16T00:18:20;20.33;;;18.15;;
51034;SDS011;37062;52.546;13.230;2023-04-16T00:20:50;22.00;;;18.23;;
51034;SDS011;37062;52.546;13.230;2023-04-16T00:23:19;22.08;;;18.77;;
51034;SDS011;37062;52.546;13.230;2023-04-16T00:25:48;20.95;;;17.08;;
51034;SDS011;37062;52.546;13.230;2023-04-16T00:28:16;20.77;;;16.52;;
51034;SDS011;37062;52.546;13.230;2023-04-16T00:30:45;20.27;;;17.20;;
51034;SDS011;37062;52.546;13.230;2023-04-16T00:33:13;22.05;;;18.15;;
51034;SDS011;37062;52.546;13.230;2023-04-16T00:35:43;20.63;;;16.90;;
51034;SDS011;37062;52.546;13.230;2023-04-16T00:38:14;20.05;;;16.40;;
51034;SDS011;37062;52.546;13.230;2023-04-16T00:40:42;19.02;;;16.25;;
51034;SDS011;37062;52.546;13.230;2023-04-16T00:43:10;23.08;;;18.30;;
51034;SDS011;37062;52.546;13.230;2023-04-16T00:45:46;21.20;;;18.17;;
51034;SDS011;37062;52.546;13.230;2023-04-16T00:48:15;21.48;;;16.98;;
51034;SDS011;37062;52.546;13.230;2023-04-16T00:50:44;22.13;;;17.63;;
51034;SDS011;37062;52.546;13.230;2023-04-16T00:53:13;23.95;;;17.17;;
51034;SDS011;37062;52.546;13.230;2023-04-16T00:55:42;22.05;;;17.35;;
51034;SDS011;37062;52.546;13.230;2023-04-16T00:58:11;21.45;;;17.75;;
51034;SDS011;37062;52.546;13.230;2023-04-16T01:00:39;23.20;;;18.88;;
51034;SDS011;37062;52.546;13.230;2023-04-16T01:03:08;19.35;;;16.95;;
51034;SDS011;37062;52.546;13.230;2023-04-16T01:05:36;22.48;;;17.52;;
51034;SDS011;37062;52.546;13.230;2023-04-16T01:08:05;21.20;;;17.58;;
51034;SDS011;37062;52.546;13.230;2023-04-16T01:10:35;20.15;;;17.77;;
51034;SDS011;37062;52.546;13.230;2023-04-16T01:13:03;20.27;;;16.58;;
51034;SDS011;37062;52.546;13.230;2023-04-16T01:15:32;19.60;;;17.52;;
51034;SDS011;37062;52.546;13.230;2023-04-16T01:18:00;19.58;;;16.63;;
51034;SDS011;37062;52.546;13.230;2023-04-16T01:20:35;21.13;;;16.92;;
51034;SDS011;37062;52.546;13.230;2023-04-16T01:23:03;21.33;;;17.13;;
51034;SDS011;37062;52.546;13.230;2023-04-16T01:25:31;17.00;;;15.25;;
51034;SDS011;37062;52.546;13.230;2023-04-16T01:27:59;21.85;;;18.08;;
51034;SDS011;37062;52.546;13.230;2023-04-16T01:30:28;18.25;;;16.15;;
51034;SDS011;37062;52.546;13.230;2023-04-16T01:33:22;19.20;;;15.98;;
51034;SDS011;37062;52.546;13.230;2023-04-16T01:35:52;20.35;;;16.45;;
51034;SDS011;37062;52.546;13.230;2023-04-16T01:38:20;19.13;;;16.67;;
51034;SDS011;37062;52.546;13.230;2023-04-16T01:40:49;25.17;;;16.40;;
51034;SDS011;37062;52.546;13.230;2023-04-16T01:43:17;19.92;;;16.20;;
51034;SDS011;37062;52.546;13.230;2023-04-16T01:45:45;18.40;;;15.65;;
51034;SDS011;37062;52.546;13.230;2023-04-16T01:48:13;21.90;;;16.85;;
51034;SDS011;37062;52.546;13.230;2023-04-16T01:50:42;20.30;;;16.10;;
51034;SDS011;37062;52.546;13.230;2023-04-16T01:53:11;20.05;;;17.67;;
51034;SDS011;37062;52.546;13.230;2023-04-16T01:55:40;19.48;;;15.95;;
51034;SDS011;37062;52.546;13.230;2023-04-16T01:58:08;21.27;;;16.80;;
51034;SDS011;37062;52.546;13.230;2023-04-16T02:00:39;18.20;;;16.08;;
51034;SDS011;37062;52.546;13.230;2023-04-16T02:03:08;21.70;;;16.38;;
51034;SDS011;37062;52.546;13.230;2023-04-16T02:05:37;20.90;;;16.77;;
51034;SDS011;37062;52.546;13.230;2023-04-16T02:08:05;21.48;;;16.88;;
51034;SDS011;37062;52.546;13.230;2023-04-16T02:10:35;19.63;;;16.42;;
51034;SDS011;37062;52.546;13.230;2023-04-16T02:13:03;17.98;;;16.02;;
51034;SDS011;37062;52.546;13.230;2023-04-16T02:15:35;22.20;;;16.80;;
51034;SDS011;37062;52.546;13.230;2023-04-16T02:18:03;22.52;;;15.68;;
51034;SDS011;37062;52.546;13.230;2023-04-16T02:20:32;21.23;;;15.43;;
51034;SDS011;37062;52.546;13.230;2023-04-16T02:23:01;22.35;;;16.48;;
51034;SDS011;37062;52.546;13.230;2023-04-16T02:25:29;20.88;;;17.02;;
51034;SDS011;37062;52.546;13.230;2023-04-16T02:27:59;19.33;;;15.73;;
51034;SDS011;37062;52.546;13.230;2023-04-16T02:30:34;21.10;;;17.08;;
51034;SDS011;37062;52.546;13.230;2023-04-16T02:33:03;18.63;;;15.68;;
51034;SDS011;37062;52.546;13.230;2023-04-16T02:35:34;22.02;;;17.05;;
51034;SDS011;37062;52.546;13.230;2023-04-16T02:38:03;22.05;;;16.23;;
51034;SDS011;37062;52.546;13.230;2023-04-16T02:40:34;22.63;;;17.55;;
51034;SDS011;37062;52.546;13.230;2023-04-16T02:43:04;21.70;;;16.98;;
51034;SDS011;37062;52.546;13.230;2023-04-16T02:45:32;22.55;;;17.80;;
51034;SDS011;37062;52.546;13.230;2023-04-16T02:48:01;21.30;;;16.95;;
51034;SDS011;37062;52.546;13.230;2023-04-16T02:50:29;22.90;;;17.65;;
51034;SDS011;37062;52.546;13.230;2023-04-16T02:52:57;20.98;;;16.45;;
51034;SDS011;37062;52.546;13.230;2023-04-16T02:55:26;20.95;;;17.08;;
51034;SDS011;37062;52.546;13.230;2023-04-16T02:57:54;23.30;;;18.60;;
51034;SDS011;37062;52.546;13.230;2023-04-16T03:00:24;24.85;;;17.77;;
51034;SDS011;37062;52.546;13.230;2023-04-16T03:02:52;25.42;;;20.13;;
51034;SDS011;37062;52.546;13.230;2023-04-16T03:05:21;25.20;;;19.17;;
51034;SDS011;37062;52.546;13.230;2023-04-16T03:07:50;22.60;;;18.20;;
51034;SDS011;37062;52.546;13.230;2023-04-16T03:10:22;24.27;;;18.73;;
51034;SDS011;37062;52.546;13.230;2023-04-16T03:12:51;24.42;;;19.60;;
51034;SDS011;37062;52.546;13.230;2023-04-16T03:15:19;23.80;;;18.30;;
51034;SDS011;37062;52.546;13.230;2023-04-16T03:17:49;25.95;;;18.95;;
51034;SDS011;37062;52.546;13.230;2023-04-16T03:20:17;23.70;;;17.63;;
51034;SDS011;37062;52.546;13.230;2023-04-16T03:22:45;28.35;;;18.95;;
51034;SDS011;37062;52.546;13.230;2023-04-16T03:25:14;25.55;;;18.52;;
51034;SDS011;37062;52.546;13.230;2023-04-16T03:27:42;25.23;;;18.90;;
51034;SDS011;37062;52.546;13.230;2023-04-16T03:30:12;26.40;;;18.65;;
51034;SDS011;37062;52.546;13.230;2023-04-16T03:32:41;24.38;;;17.02;;
51034;SDS011;37062;52.546;13.230;2023-04-16T03:35:12;24.05;;;18.75;;
51034;SDS011;37062;52.546;13.230;2023-04-16T03:37:40;21.88;;;16.60;;
51034;SDS011;37062;52.546;13.230;2023-04-16T03:40:09;22.38;;;17.27;;
51034;SDS011;37062;52.546;13.230;2023-04-16T03:42:38;22.60;;;17.30;;
51034;SDS011;37062;52.546;13.230;2023-04-16T03:45:06;25.00;;;16.70;;
51034;SDS011;37062;52.546;13.230;2023-04-16T03:47:37;21.38;;;16.83;;
51034;SDS011;37062;52.546;13.230;2023-04-16T03:50:07;20.50;;;16.30;;
51034;SDS011;37062;52.546;13.230;2023-04-16T03:52:38;25.13;;;18.48;;
51034;SDS011;37062;52.546;13.230;2023-04-16T03:55:07;24.25;;;16.98;;
51034;SDS011;37062;52.546;13.230;2023-04-16T03:57:35;22.98;;;17.65;;
51034;SDS011;37062;52.546;13.230;2023-04-16T04:00:09;21.08;;;16.48;;
51034;SDS011;37062;52.546;13.230;2023-04-16T04:02:53;21.85;;;16.90;;
51034;SDS011;37062;52.546;13.230;2023-04-16T04:05:22;26.48;;;17.70;;
51034;SDS011;37062;52.546;13.230;2023-04-16T04:07:52;23.50;;;17.75;;
51034;SDS011;37062;52.546;13.230;2023-04-16T04:10:21;22.67;;;16.77;;
51034;SDS011;37062;52.546;13.230;2023-04-16T04:12:49;21.35;;;17.20;;
51034;SDS011;37062;52.546;13.230;2023-04-16T04:15:18;28.23;;;18.83;;
51034;SDS011;37062;52.546;13.230;2023-04-16T04:17:46;25.75;;;19.13;;
51034;SDS011;37062;52.546;13.230;2023-04-16T04:20:14;31.00;;;20.38;;
51034;SDS011;37062;52.546;13.230;2023-04-16T04:22:45;24.02;;;17.55;;
51034;SDS011;37062;52.546;13.230;2023-04-16T04:25:15;32.03;;;20.67;;
51034;SDS011;37062;52.546;13.230;2023-04-16T04:27:44;25.75;;;18.83;;
51034;SDS011;37062;52.546;13.230;2023-04-16T04:30:12;26.02;;;18.52;;
51034;SDS011;37062;52.546;13.230;2023-04-16T04:32:42;27.05;;;18.10;;
51034;SDS011;37062;52.546;13.230;2023-04-16T04:35:10;26.83;;;19.65;;
51034;SDS011;37062;52.546;13.230;2023-04-16T04:37:40;26.35;;;19.73;;
51034;SDS011;37062;52.546;13.230;2023-04-16T04:40:16;27.23;;;19.08;;
51034;SDS011;37062;52.546;13.230;2023-04-16T04:42:45;27.00;;;19.65;;
51034;SDS011;37062;52.546;13.230;2023-04-16T04:45:14;29.38;;;20.60;;
51034;SDS011;37062;52.546;13.230;2023-04-16T04:47:42;22.27;;;18.00;;
51034;SDS011;37062;52.546;13.230;2023-04-16T04:50:11;27.20;;;18.50;;
51034;SDS011;37062;52.546;13.230;2023-04-16T04:52:39;28.33;;;18.58;;
51034;SDS011;37062;52.546;13.230;2023-04-16T04:55:08;24.45;;;18.45;;
51034;SDS011;37062;52.546;13.230;2023-04-16T04:57:38;27.23;;;19.00;;
51034;SDS011;37062;52.546;13.230;2023-04-16T05:00:06;23.35;;;18.13;;
51034;SDS011;37062;52.546;13.230;2023-04-16T05:02:46;22.70;;;17.42;;
51034;SDS011;37062;52.546;13.230;2023-04-16T05:05:15;22.52;;;17.88;;
51034;SDS011;37062;52.546;13.230;2023-04-16T05:07:43;24.15;;;17.77;;
51034;SDS011;37062;52.546;13.230;2023-04-16T05:10:11;24.52;;;17.80;;
51034;SDS011;37062;52.546;13.230;2023-04-16T05:12:41;23.60;;;17.35;;
51034;SDS011;37062;52.546;13.230;2023-04-16T05:15:10;25.63;;;16.90;;
51034;SDS011;37062;52.546;13.230;2023-04-16T05:17:38;20.83;;;16.38;;
51034;SDS011;37062;52.546;13.230;2023-04-16T05:20:07;19.38;;;15.75;;
51034;SDS011;37062;52.546;13.230;2023-04-16T05:22:36;22.98;;;17.35;;
51034;SDS011;37062;52.546;13.230;2023-04-16T05:25:04;23.23;;;16.90;;
51034;SDS011;37062;52.546;13.230;2023-04-16T05:27:33;19.48;;;16.00;;
51034;SDS011;37062;52.546;13.230;2023-04-16T05:30:03;20.60;;;16.52;;
51034;SDS011;37062;52.546;13.230;2023-04-16T05:32:32;23.45;;;17.33;;
51034;SDS011;37062;52.546;13.230;2023-04-16T05:35:00;18.42;;;15.43;;
51034;SDS011;37062;52.546;13.230;2023-04-16T05:37:28;21.20;;;16.50;;
51034;SDS011;37062;52.546;13.230;2023-04-16T05:39:57;21.60;;;17.20;;
51034;SDS011;37062;52.546;13.230;2023-04-16T05:42:25;20.38;;;16.17;;
51034;SDS011;37062;52.546;13.230;2023-04-16T05:44:53;21.55;;;16.60;;
51034;SDS011;37062;52.546;13.230;2023-04-16T05:47:24;22.10;;;17.60;;
51034;SDS011;37062;52.546;13.230;2023-04-16T05:49:52;22.23;;;16.15;;
51034;SDS011;37062;52.546;13.230;2023-04-16T05:52:20;20.67;;;16.55;;
51034;SDS011;37062;52.546;13.230;2023-04-16T05:54:48;21.20;;;16.35;;
51034;SDS011;37062;52.546;13.230;2023-04-16T05:57:16;22.73;;;16.83;;
51034;SDS011;37062;52.546;13.230;2023-04-16T05:59:45;19.65;;;15.40;;
51034;SDS011;37062;52.546;13.230;2023-04-16T06:02:13;20.05;;;16.58;;
51034;SDS011;37062;52.546;13.230;2023-04-16T06:04:43;26.05;;;16.52;;
51034;SDS011;37062;52.546;13.230;2023-04-16T06:07:11;21.88;;;15.68;;
51034;SDS011;37062;52.546;13.230;2023-04-16T06:09:43;20.15;;;15.60;;
51034;SDS011;37062;52.546;13.230;2023-04-16T06:12:14;19.85;;;16.10;;
51034;SDS011;37062;52.546;13.230;2023-04-16T06:14:42;19.80;;;16.35;;
51034;SDS011;37062;52.546;13.230;2023-04-16T06:17:13;20.73;;;15.45;;
51034;SDS011;37062;52.546;13.230;2023-04-16T06:19:43;23.98;;;16.75;;
51034;SDS011;37062;52.546;13.230;2023-04-16T06:22:12;21.27;;;16.63;;
51034;SDS011;37062;52.546;13.230;2023-04-16T06:24:40;19.98;;;17.02;;
51034;SDS011;37062;52.546;13.230;2023-04-16T06:27:08;23.83;;;18.08;;
51034;SDS011;37062;52.546;13.230;2023-04-16T06:29:37;20.95;;;17.08;;
51034;SDS011;37062;52.546;13.230;2023-04-16T06:32:07;21.42;;;16.00;;
51034;SDS011;37062;52.546;13.230;2023-04-16T06:34:36;23.33;;;15.38;;
51034;SDS011;37062;52.546;13.230;2023-04-16T06:37:06;22.92;;;15.85;;
51034;SDS011;37062;52.546;13.230;2023-04-16T06:39:36;18.38;;;15.20;;
51034;SDS011;37062;52.546;13.230;2023-04-16T06:42:04;20.52;;;15.90;;
51034;SDS011;37062;52.546;13.230;2023-04-16T06:44:34;18.50;;;15.18;;
51034;SDS011;37062;52.546;13.230;2023-04-16T06:47:02;20.98;;;15.00;;
51034;SDS011;37062;52.546;13.230;2023-04-16T06:49:30;21.48;;;16.30;;
51034;SDS011;37062;52.546;13.230;2023-04-16T06:51:59;21.90;;;15.95;;
51034;SDS011;37062;52.546;13.230;2023-04-16T06:54:32;21.17;;;16.65;;
51034;SDS011;37062;52.546;13.230;2023-04-16T06:57:01;20.13;;;15.77;;
51034;SDS011;37062;52.546;13.230;2023-04-16T06:59:29;19.15;;;15.57;;
51034;SDS011;37062;52.546;13.230;2023-04-16T07:01:58;22.33;;;16.10;;
51034;SDS011;37062;52.546;13.230;2023-04-16T07:04:26;20.42;;;16.50;;
51034;SDS011;37062;52.546;13.230;2023-04-16T07:06:55;19.13;;;15.23;;
51034;SDS011;37062;52.546;13.230;2023-04-16T07:09:23;19.92;;;16.63;;
51034;SDS011;37062;52.546;13.230;2023-04-16T07:11:53;20.52;;;16.15;;
51034;SDS011;37062;52.546;13.230;2023-04-16T07:14:21;19.50;;;14.80;;
51034;SDS011;37062;52.546;13.230;2023-04-16T07:16:50;19.38;;;15.05;;
51034;SDS011;37062;52.546;13.230;2023-04-16T07:19:18;20.17;;;15.95;;
51034;SDS011;37062;52.546;13.230;2023-04-16T07:21:47;21.48;;;16.75;;
51034;SDS011;37062;52.546;13.230;2023-04-16T07:24:15;20.55;;;16.13;;
51034;SDS011;37062;52.546;13.230;2023-04-16T07:26:44;20.73;;;15.82;;
51034;SDS011;37062;52.546;13.230;2023-04-16T07:29:13;22.40;;;16.75;;
51034;SDS011;37062;52.546;13.230;2023-04-16T07:31:41;23.98;;;16.05;;
51034;SDS011;37062;52.546;13.230;2023-04-16T07:34:11;22.73;;;16.98;;
51034;SDS011;37062;52.546;13.230;2023-04-16T07:36:39;21.98;;;17.45;;
51034;SDS011;37062;52.546;13.230;2023-04-16T07:39:07;22.67;;;16.55;;
51034;SDS011;37062;52.546;13.230;2023-04-16T07:41:38;22.15;;;16.48;;
51034;SDS011;37062;52.546;13.230;2023-04-16T07:44:07;22.23;;;15.82;;
51034;SDS011;37062;52.546;13.230;2023-04-16T07:46:37;23.60;;;15.85;;
51034;SDS011;37062;52.546;13.230;2023-04-16T07:49:13;20.30;;;16.15;;
51034;SDS011;37062;52.546;13.230;2023-04-16T07:51:41;20.13;;;16.55;;
51034;SDS011;37062;52.546;13.230;2023-04-16T07:54:09;18.55;;;15.23;;
51034;SDS011;37062;52.546;13.230;2023-04-16T07:56:38;19.17;;;14.98;;
51034;SDS011;37062;52.546;13.230;2023-04-16T07:59:06;19.23;;;15.70;;
51034;SDS011;37062;52.546;13.230;2023-04-16T08:01:50;21.70;;;15.55;;
51034;SDS011;37062;52.546;13.230;2023-04-16T08:04:19;19.85;;;15.38;;
51034;SDS011;37062;52.546;13.230;2023-04-16T08:06:51;19.60;;;15.50;;
51034;SDS011;37062;52.546;13.230;2023-04-16T08:09:21;20.63;;;15.15;;
51034;SDS011;37062;52.546;13.230;2023-04-16T08:11:50;18.27;;;14.98;;
51034;SDS011;37062;52.546;13.230;2023-04-16T08:14:18;20.65;;;15.10;;
51034;SDS011;37062;52.546;13.230;2023-04-16T08:16:47;21.08;;;16.05;;
51034;SDS011;37062;52.546;13.230;2023-04-16T08:19:17;20.77;;;15.40;;
51034;SDS011;37062;52.546;13.230;2023-04-16T08:21:45;16.92;;;13.65;;
51034;SDS011;37062;52.546;13.230;2023-04-16T08:24:14;20.48;;;15.43;;
51034;SDS011;37062;52.546;13.230;2023-04-16T08:26:43;19.35;;;14.18;;
51034;SDS011;37062;52.546;13.230;2023-04-16T08:29:11;18.70;;;14.80;;
51034;SDS011;37062;52.546;13.230;2023-04-16T08:31:39;17.83;;;13.65;;
51034;SDS011;37062;52.546;13.230;2023-04-16T08:34:09;18.05;;;13.35;;
51034;SDS011;37062;52.546;13.230;2023-04-16T08:36:39;17.15;;;13.70;;
51034;SDS011;37062;52.546;13.230;2023-04-16T08:39:07;16.60;;;13.27;;
51034;SDS011;37062;52.546;13.230;2023-04-16T08:41:37;16.02;;;13.32;;
51034;SDS011;37062;52.546;13.230;2023-04-16T08:44:08;16.40;;;13.48;;
51034;SDS011;37062;52.546;13.230;2023-04-16T08:46:40;18.55;;;14.13;;
51034;SDS011;37062;52.546;13.230;2023-04-16T08:49:12;16.48;;;12.98;;
51034;SDS011;37062;52.546;13.230;2023-04-16T08:51:48;16.77;;;13.02;;
51034;SDS011;37062;52.546;13.230;2023-04-16T08:54:20;18.63;;;12.82;;
51034;SDS011;37062;52.546;13.230;2023-04-16T08:56:58;17.80;;;12.88;;
51034;SDS011;37062;52.546;13.230;2023-04-16T08:59:28;15.55;;;12.30;;
51034;SDS011;37062;52.546;13.230;2023-04-16T09:01:57;14.75;;;12.52;;
51034;SDS011;37062;52.546;13.230;2023-04-16T09:04:27;15.65;;;11.65;;
51034;SDS011;37062;52.546;13.230;2023-04-16T09:06:57;17.05;;;13.30;;
51034;SDS011;37062;52.546;13.230;2023-04-16T09:09:27;16.38;;;13.43;;
51034;SDS011;37062;52.546;13.230;2023-04-16T09:11:55;17.45;;;13.65;;
51034;SDS011;37062;52.546;13.230;2023-04-16T09:14:23;17.52;;;13.45;;
51034;SDS011;37062;52.546;13.230;2023-04-16T09:16:52;14.65;;;12.20;;
51034;SDS011;37062;52.546;13.230;2023-04-16T09:19:21;16.48;;;12.43;;
51034;SDS011;37062;52.546;13.230;2023-04-16T09:21:49;19.75;;;14.10;;
51034;SDS011;37062;52.546;13.230;2023-04-16T09:24:20;15.75;;;12.35;;
51034;SDS011;37062;52.546;13.230;2023-04-16T09:26:49;16.50;;;13.75;;
51034;SDS011;37062;52.546;13.230;2023-04-16T09:29:31;17.25;;;14.63;;
51034;SDS011;37062;52.546;13.230;2023-04-16T09:32:01;17.95;;;13.57;;
51034;SDS011;37062;52.546;13.230;2023-04-16T09:34:31;16.92;;;12.95;;
51034;SDS011;37062;52.546;13.230;2023-04-16T09:37:15;17.80;;;14.07;;
51034;SDS011;37062;52.546;13.230;2023-04-16T09:39:52;15.70;;;12.20;;
51034;SDS011;37062;52.546;13.230;2023-04-16T09:42:22;19.25;;;13.20;;
51034;SDS011;37062;52.546;13.230;2023-04-16T09:44:54;20.40;;;15.50;;
51034;SDS011;37062;52.546;13.230;2023-04-16T09:47:38;17.40;;;13.80;;
51034;SDS011;37062;52.546;13.230;2023-04-16T09:50:08;17.15;;;12.27;;
51034;SDS011;37062;52.546;13.230;2023-04-16T09:52:38;16.83;;;13.73;;
51034;SDS011;37062;52.546;13.230;2023-04-16T09:55:11;18.00;;;15.05;;
51034;SDS011;37062;52.546;13.230;2023-04-16T09:57:40;18.48;;;13.68;;
51034;SDS011;37062;52.546;13.230;2023-04-16T10:00:08;16.73;;;13.23;;
51034;SDS011;37062;52.546;13.230;2023-04-16T10:02:38;15.80;;;12.65;;
51034;SDS011;37062;52.546;13.230;2023-04-16T10:05:08;17.02;;;14.35;;
51034;SDS011;37062;52.546;13.230;2023-04-16T10:07:42;19.35;;;14.70;;
51034;SDS011;37062;52.546;13.230;2023-04-16T10:10:12;17.23;;;13.85;;
51034;SDS011;37062;52.546;13.230;2023-04-16T10:12:40;15.70;;;13.07;;
51034;SDS011;37062;52.546;13.230;2023-04-16T10:15:09;18.42;;;14.13;;
51034;SDS011;37062;52.546;13.230;2023-04-16T10:17:38;16.73;;;14.63;;
51034;SDS011;37062;52.546;13.230;2023-04-16T10:20:06;21.30;;;15.18;;
51034;SDS011;37062;52.546;13.230;2023-04-16T10:22:35;18.50;;;14.38;;
51034;SDS011;37062;52.546;13.230;2023-04-16T10:25:04;16.50;;;14.57;;
51034;SDS011;37062;52.546;13.230;2023-04-16T10:27:35;20.40;;;15.55;;
51034;SDS011;37062;52.546;13.230;2023-04-16T10:30:05;20.35;;;15.60;;
51034;SDS011;37062;52.546;13.230;2023-04-16T10:32:35;17.52;;;13.98;;
51034;SDS011;37062;52.546;13.230;2023-04-16T10:35:06;18.23;;;13.88;;
51034;SDS011;37062;52.546;13.230;2023-04-16T10:37:36;17.33;;;14.48;;
51034;SDS011;37062;52.546;13.230;2023-04-16T10:42:56;15.27;;;12.68;;
51034;SDS011;37062;52.546;13.230;2023-04-16T10:45:25;16.35;;;13.73;;
51034;SDS011;37062;52.546;13.230;2023-04-16T10:47:58;13.23;;;11.70;;
51034;SDS011;37062;52.546;13.230;2023-04-16T10:50:34;15.13;;;12.27;;
51034;SDS011;37062;52.546;13.230;2023-04-16T10:58:42;14.18;;;11.90;;
51034;SDS011;37062;52.546;13.230;2023-04-16T11:01:11;13.13;;;11.57;;
51034;SDS011;37062;52.546;13.230;2023-04-16T11:03:42;11.25;;;10.05;;
51034;SDS011;37062;52.546;13.230;2023-04-16T11:06:13;13.82;;;11.57;;
51034;SDS011;37062;52.546;13.230;2023-04-16T11:08:43;12.52;;;11.15;;
51034;SDS011;37062;52.546;13.230;2023-04-16T11:11:20;14.15;;;11.68;;
51034;SDS011;37062;52.546;13.230;2023-04-16T11:13:55;11.77;;;10.18;;
51034;SDS011;37062;52.546;13.230;2023-04-16T11:16:23;12.50;;;11.20;;
51034;SDS011;37062;52.546;13.230;2023-04-16T11:18:55;11.52;;;10.18;;
51034;SDS011;37062;52.546;13.230;2023-04-16T11:21:23;12.82;;;10.48;;
51034;SDS011;37062;52.546;13.230;2023-04-16T11:23:52;11.15;;;9.68;;
51034;SDS011;37062;52.546;13.230;2023-04-16T11:26:22;11.00;;;9.65;;
51034;SDS011;37062;52.546;13.230;2023-04-16T11:28:52;12.75;;;10.75;;
51034;SDS011;37062;52.546;13.230;2023-04-16T11:31:23;12.88;;;9.52;;
51034;SDS011;37062;52.546;13.230;2023-04-16T11:33:54;11.02;;;9.35;;
51034;SDS011;37062;52.546;13.230;2023-04-16T11:36:23;11.23;;;9.60;;
51034;SDS011;37062;52.546;13.230;2023-04-16T11:39:00;11.88;;;9.20;;
51034;SDS011;37062;52.546;13.230;2023-04-16T11:41:30;11.20;;;9.45;;
51034;SDS011;37062;52.546;13.230;2023-04-16T11:43:58;11.95;;;10.15;;
51034;SDS011;37062;52.546;13.230;2023-04-16T11:46:37;11.88;;;10.38;;
51034;SDS011;37062;52.546;13.230;2023-04-16T11:49:06;12.43;;;10.57;;
51034;SDS011;37062;52.546;13.230;2023-04-16T11:51:38;12.95;;;9.95;;
51034;SDS011;37062;52.546;13.230;2023-04-16T11:54:07;15.00;;;10.63;;
51034;SDS011;37062;52.546;13.230;2023-04-16T11:56:37;13.43;;;10.32;;
51034;SDS011;37062;52.546;13.230;2023-04-16T11:59:12;13.05;;;10.90;;
51034;SDS011;37062;52.546;13.230;2023-04-16T12:01:44;10.95;;;9.20;;
51034;SDS011;37062;52.546;13.230;2023-04-16T12:04:14;12.10;;;10.43;;
51034;SDS011;37062;52.546;13.230;2023-04-16T12:09:31;12.65;;;10.02;;
51034;SDS011;37062;52.546;13.230;2023-04-16T12:12:03;11.10;;;9.07;;
51034;SDS011;37062;52.546;13.230;2023-04-16T12:14:31;12.35;;;8.65;;
51034;SDS011;37062;52.546;13.230;2023-04-16T12:19:48;10.27;;;8.88;;
51034;SDS011;37062;52.546;13.230;2023-04-16T12:22:25;10.00;;;8.98;;
51034;SDS011;37062;52.546;13.230;2023-04-16T12:24:57;9.25;;;8.27;;
51034;SDS011;37062;52.546;13.230;2023-04-16T12:27:30;9.32;;;8.07;;
51034;SDS011;37062;52.546;13.230;2023-04-16T12:30:08;9.02;;;8.07;;
51034;SDS011;37062;52.546;13.230;2023-04-16T12:32:40;11.82;;;8.95;;
51034;SDS011;37062;52.546;13.230;2023-04-16T12:35:09;9.20;;;8.00;;
51034;SDS011;37062;52.546;13.230;2023-04-16T12:37:38;9.68;;;8.68;;
51034;SDS011;37062;52.546;13.230;2023-04-16T12:40:07;10.77;;;9.13;;
51034;SDS011;37062;52.546;13.230;2023-04-16T12:42:36;8.68;;;7.80;;
51034;SDS011;37062;52.546;13.230;2023-04-16T12:45:05;9.10;;;8.10;;
51034;SDS011;37062;52.546;13.230;2023-04-16T12:47:34;9.63;;;8.10;;
51034;SDS011;37062;52.546;13.230;2023-04-16T12:50:04;8.95;;;7.80;;
51034;SDS011;37062;52.546;13.230;2023-04-16T12:52:32;9.95;;;7.97;;
51034;SDS011;37062;52.546;13.230;2023-04-16T12:55:01;11.60;;;8.63;;
51034;SDS011;37062;52.546;13.230;2023-04-16T12:57:29;10.00;;;8.38;;
51034;SDS011;37062;52.546;13.230;2023-04-16T12:59:58;8.93;;;7.88;;
51034;SDS011;37062;52.546;13.230;2023-04-16T13:02:26;12.88;;;8.63;;
51034;SDS011;37062;52.546;13.230;2023-04-16T13:04:55;11.05;;;8.70;;
51034;SDS011;37062;52.546;13.230;2023-04-16T13:07:24;9.63;;;8.65;;
51034;SDS011;37062;52.546;13.230;2023-04-16T13:09:53;9.88;;;7.78;;
51034;SDS011;37062;52.546;13.230;2023-04-16T13:12:21;9.23;;;8.32;;
51034;SDS011;37062;52.546;13.230;2023-04-16T13:14:50;10.55;;;8.00;;
51034;SDS011;37062;52.546;13.230;2023-04-16T13:17:18;8.65;;;7.75;;
51034;SDS011;37062;52.546;13.230;2023-04-16T13:19:46;8.60;;;7.80;;
51034;SDS011;37062;52.546;13.230;2023-04-16T13:22:14;9.27;;;7.70;;
51034;SDS011;37062;52.546;13.230;2023-04-16T13:24:44;11.57;;;8.70;;
51034;SDS011;37062;52.546;13.230;2023-04-16T13:27:13;10.18;;;8.18;;
51034;SDS011;37062;52.546;13.230;2023-04-16T13:29:42;9.07;;;7.38;;
51034;SDS011;37062;52.546;13.230;2023-04-16T13:32:10;9.15;;;7.78;;
51034;SDS011;37062;52.546;13.230;2023-04-16T13:34:40;10.40;;;7.35;;
51034;SDS011;37062;52.546;13.230;2023-04-16T13:37:09;9.98;;;7.50;;
51034;SDS011;37062;52.546;13.230;2023-04-16T13:39:37;8.65;;;7.28;;
51034;SDS011;37062;52.546;13.230;2023-04-16T13:42:07;8.07;;;7.00;;
51034;SDS011;37062;52.546;13.230;2023-04-16T13:44:35;8.55;;;7.53;;
51034;SDS011;37062;52.546;13.230;2023-04-16T13:47:06;8.27;;;7.32;;
51034;SDS011;37062;52.546;13.230;2023-04-16T13:49:36;10.95;;;7.47;;
51034;SDS011;37062;52.546;13.230;2023-04-16T13:52:05;7.45;;;6.75;;
51034;SDS011;37062;52.546;13.230;2023-04-16T13:54:33;7.28;;;6.57;;
51034;SDS011;37062;52.546;13.230;2023-04-16T13:57:02;9.40;;;7.57;;
51034;SDS011;37062;52.546;13.230;2023-04-16T13:59:32;8.50;;;7.30;;
51034;SDS011;37062;52.546;13.230;2023-04-16T14:02:00;9.32;;;8.00;;
51034;SDS011;37062;52.546;13.230;2023-04-16T14:04:30;8.85;;;7.63;;
51034;SDS011;37062;52.546;13.230;2023-04-16T14:06:58;80.03;;;39.10;;
51034;SDS011;37062;52.546;13.230;2023-04-16T14:09:27;12.40;;;8.40;;
51034;SDS011;37062;52.546;13.230;2023-04-16T14:11:56;7.88;;;7.07;;
51034;SDS011;37062;52.546;13.230;2023-04-16T14:14:24;9.40;;;6.88;;
51034;SDS011;37062;52.546;13.230;2023-04-16T14:16:54;8.73;;;7.20;;
51034;SDS011;37062;52.546;13.230;2023-04-16T14:19:22;8.70;;;7.07;;
51034;SDS011;37062;52.546;13.230;2023-04-16T14:21:50;8.02;;;6.97;;
51034;SDS011;37062;52.546;13.230;2023-04-16T14:24:19;7.60;;;6.78;;
51034;SDS011;37062;52.546;13.230;2023-04-16T14:26:47;7.82;;;6.30;;
51034;SDS011;37062;52.546;13.230;2023-04-16T14:29:16;7.57;;;6.72;;
51034;SDS011;37062;52.546;13.230;2023-04-16T14:31:44;8.68;;;6.05;;
51034;SDS011;37062;52.546;13.230;2023-04-16T14:34:14;6.40;;;5.78;;
51034;SDS011;37062;52.546;13.230;2023-04-16T14:36:42;6.07;;;5.45;;
51034;SDS011;37062;52.546;13.230;2023-04-16T14:39:11;5.28;;;4.78;;
51034;SDS011;37062;52.546;13.230;2023-04-16T14:41:39;8.27;;;5.60;;